sensor_id;sensor_type;location;lat;lon;timestamp;P1;durP1;ratioP1;P2;durP2;ratioP2
7263;SDS011;3673;52.480;13.348;2023-07-09T00:02:12;3.85;;;2.95;;
7263;SDS011;3673;52.480;13.348;2023-07-09T00:04:40;3.92;;;3.30;;
7263;SDS011;3673;52.480;13.348;2023-07-09T00:07:08;4.25;;;3.30;;
7263;SDS011;3673;52.480;13.348;2023-07-09T00:09:44;4.93;;;3.53;;
7263;SDS011;3673;52.480;13.348;2023-07-09T00:12:13;5.35;;;2.97;;
7263;SDS011;3673;52.480;13.348;2023-07-09T00:14:43;4.50;;;2.95;;
7263;SDS011;3673;52.480;13.348;2023-07-09T00:17:11;5.18;;;3.35;;
7263;SDS011;3673;52.480;13.348;2023-07-09T00:19:55;5.28;;;3.10;;
7263;SDS011;3673;52.480;13.348;2023-07-09T00:22:22;4.53;;;3.53;;
7263;SDS011;3673;52.480;13.348;2023-07-09T00:24:52;4.43;;;3.35;;
7263;SDS011;3673;52.480;13.348;2023-07-09T00:27:22;3.50;;;2.53;;
7263;SDS011;3673;52.480;13.348;2023-07-09T00:29:54;8.75;;;5.00;;
7263;SDS011;3673;52.480;13.348;2023-07-09T00:32:21;8.57;;;3.63;;
7263;SDS011;3673;52.480;13.348;2023-07-09T00:34:50;4.07;;;2.85;;
7263;SDS011;3673;52.480;13.348;2023-07-09T00:37:19;5.70;;;2.92;;
7263;SDS011;3673;52.480;13.348;2023-07-09T00:39:51;4.65;;;3.67;;
7263;SDS011;3673;52.480;13.348;2023-07-09T00:42:18;6.10;;;4.55;;
7263;SDS011;3673;52.480;13.348;2023-07-09T00:44:50;6.55;;;4.70;;
7263;SDS011;3673;52.480;13.348;2023-07-09T00:47:22;8.55;;;5.47;;
7263;SDS011;3673;52.480;13.348;2023-07-09T00:50:08;8.10;;;5.10;;
7263;SDS011;3673;52.480;13.348;2023-07-09T00:52:48;6.60;;;4.95;;
7263;SDS011;3673;52.480;13.348;2023-07-09T00:55:21;7.60;;;4.75;;
7263;SDS011;3673;52.480;13.348;2023-07-09T00:57:52;7.30;;;4.85;;
7263;SDS011;3673;52.480;13.348;2023-07-09T01:00:27;7.15;;;4.30;;
7263;SDS011;3673;52.480;13.348;2023-07-09T01:03:08;4.70;;;3.83;;
7263;SDS011;3673;52.480;13.348;2023-07-09T01:05:37;5.22;;;3.25;;
7263;SDS011;3673;52.480;13.348;2023-07-09T01:08:05;7.97;;;3.95;;
7263;SDS011;3673;52.480;13.348;2023-07-09T01:10:34;4.97;;;2.75;;
7263;SDS011;3673;52.480;13.348;2023-07-09T01:13:02;4.03;;;3.55;;
7263;SDS011;3673;52.480;13.348;2023-07-09T01:15:29;4.88;;;3.47;;
7263;SDS011;3673;52.480;13.348;2023-07-09T01:17:55;4.95;;;3.25;;
7263;SDS011;3673;52.480;13.348;2023-07-09T01:20:23;4.60;;;3.25;;
7263;SDS011;3673;52.480;13.348;2023-07-09T01:22:53;6.43;;;3.03;;
7263;SDS011;3673;52.480;13.348;2023-07-09T01:25:22;3.78;;;2.90;;
7263;SDS011;3673;52.480;13.348;2023-07-09T01:27:50;3.78;;;2.97;;
7263;SDS011;3673;52.480;13.348;2023-07-09T01:30:18;3.45;;;3.15;;
7263;SDS011;3673;52.480;13.348;2023-07-09T01:32:48;4.80;;;3.17;;
7263;SDS011;3673;52.480;13.348;2023-07-09T01:35:17;5.38;;;2.83;;
7263;SDS011;3673;52.480;13.348;2023-07-09T01:37:46;5.68;;;3.28;;
7263;SDS011;3673;52.480;13.348;2023-07-09T01:40:15;4.18;;;2.92;;
7263;SDS011;3673;52.480;13.348;2023-07-09T01:42:45;4.78;;;3.10;;
7263;SDS011;3673;52.480;13.348;2023-07-09T01:45:12;4.38;;;2.85;;
7263;SDS011;3673;52.480;13.348;2023-07-09T01:47:40;5.70;;;3.20;;
7263;SDS011;3673;52.480;13.348;2023-07-09T01:50:08;3.90;;;2.90;;
7263;SDS011;3673;52.480;13.348;2023-07-09T01:52:36;3.55;;;2.75;;
7263;SDS011;3673;52.480;13.348;2023-07-09T01:55:06;5.43;;;3.53;;
7263;SDS011;3673;52.480;13.348;2023-07-09T01:57:36;5.80;;;3.28;;
7263;SDS011;3673;52.480;13.348;2023-07-09T02:00:06;4.65;;;3.15;;
7263;SDS011;3673;52.480;13.348;2023-07-09T02:02:38;5.05;;;3.17;;
7263;SDS011;3673;52.480;13.348;2023-07-09T02:05:08;4.43;;;3.25;;
7263;SDS011;3673;52.480;13.348;2023-07-09T02:07:36;4.85;;;3.38;;
7263;SDS011;3673;52.480;13.348;2023-07-09T02:10:03;3.60;;;3.22;;
7263;SDS011;3673;52.480;13.348;2023-07-09T02:12:31;6.15;;;3.30;;
7263;SDS011;3673;52.480;13.348;2023-07-09T02:14:59;4.65;;;3.60;;
7263;SDS011;3673;52.480;13.348;2023-07-09T02:17:26;7.05;;;3.60;;
7263;SDS011;3673;52.480;13.348;2023-07-09T02:19:52;6.22;;;3.65;;
7263;SDS011;3673;52.480;13.348;2023-07-09T02:22:19;6.00;;;3.67;;
7263;SDS011;3673;52.480;13.348;2023-07-09T02:24:46;7.43;;;3.63;;
7263;SDS011;3673;52.480;13.348;2023-07-09T02:27:15;8.88;;;4.32;;
7263;SDS011;3673;52.480;13.348;2023-07-09T02:29:45;5.22;;;3.78;;
7263;SDS011;3673;52.480;13.348;2023-07-09T02:32:17;5.97;;;3.83;;
7263;SDS011;3673;52.480;13.348;2023-07-09T02:34:46;4.57;;;3.53;;
7263;SDS011;3673;52.480;13.348;2023-07-09T02:37:18;5.72;;;4.00;;
7263;SDS011;3673;52.480;13.348;2023-07-09T02:39:46;5.35;;;3.83;;
7263;SDS011;3673;52.480;13.348;2023-07-09T02:42:14;5.15;;;3.40;;
7263;SDS011;3673;52.480;13.348;2023-07-09T02:44:45;6.38;;;3.70;;
7263;SDS011;3673;52.480;13.348;2023-07-09T02:47:13;7.28;;;3.58;;
7263;SDS011;3673;52.480;13.348;2023-07-09T02:49:40;8.00;;;3.67;;
7263;SDS011;3673;52.480;13.348;2023-07-09T02:52:07;4.75;;;3.30;;
7263;SDS011;3673;52.480;13.348;2023-07-09T02:54:35;6.20;;;3.80;;
7263;SDS011;3673;52.480;13.348;2023-07-09T02:57:02;5.03;;;3.50;;
7263;SDS011;3673;52.480;13.348;2023-07-09T02:59:29;5.68;;;3.60;;
7263;SDS011;3673;52.480;13.348;2023-07-09T03:01:58;4.93;;;3.15;;
7263;SDS011;3673;52.480;13.348;2023-07-09T03:04:28;6.55;;;3.75;;
7263;SDS011;3673;52.480;13.348;2023-07-09T03:06:57;7.03;;;3.60;;
7263;SDS011;3673;52.480;13.348;2023-07-09T03:09:25;5.97;;;3.80;;
7263;SDS011;3673;52.480;13.348;2023-07-09T03:11:52;8.60;;;3.45;;
7263;SDS011;3673;52.480;13.348;2023-07-09T03:14:19;5.60;;;3.70;;
7263;SDS011;3673;52.480;13.348;2023-07-09T03:16:46;5.65;;;3.30;;
7263;SDS011;3673;52.480;13.348;2023-07-09T03:19:13;5.47;;;3.80;;
7263;SDS011;3673;52.480;13.348;2023-07-09T03:21:41;4.90;;;3.55;;
7263;SDS011;3673;52.480;13.348;2023-07-09T03:24:08;9.13;;;4.13;;
7263;SDS011;3673;52.480;13.348;2023-07-09T03:26:35;4.18;;;3.47;;
7263;SDS011;3673;52.480;13.348;2023-07-09T03:29:02;7.63;;;3.42;;
7263;SDS011;3673;52.480;13.348;2023-07-09T03:31:29;5.97;;;4.05;;
7263;SDS011;3673;52.480;13.348;2023-07-09T03:33:59;7.10;;;3.20;;
7263;SDS011;3673;52.480;13.348;2023-07-09T03:36:26;4.63;;;3.63;;
7263;SDS011;3673;52.480;13.348;2023-07-09T03:38:55;7.97;;;4.28;;
7263;SDS011;3673;52.480;13.348;2023-07-09T03:41:21;8.85;;;4.05;;
7263;SDS011;3673;52.480;13.348;2023-07-09T03:43:48;8.25;;;3.85;;
7263;SDS011;3673;52.480;13.348;2023-07-09T03:46:17;7.10;;;3.38;;
7263;SDS011;3673;52.480;13.348;2023-07-09T03:48:44;4.80;;;3.70;;
7263;SDS011;3673;52.480;13.348;2023-07-09T03:51:11;4.93;;;3.92;;
7263;SDS011;3673;52.480;13.348;2023-07-09T03:53:38;5.22;;;3.40;;
7263;SDS011;3673;52.480;13.348;2023-07-09T03:56:06;4.88;;;3.42;;
7263;SDS011;3673;52.480;13.348;2023-07-09T03:58:34;7.93;;;3.88;;
7263;SDS011;3673;52.480;13.348;2023-07-09T04:01:01;7.63;;;4.05;;
7263;SDS011;3673;52.480;13.348;2023-07-09T04:03:29;4.43;;;4.00;;
7263;SDS011;3673;52.480;13.348;2023-07-09T04:05:56;6.55;;;3.42;;
7263;SDS011;3673;52.480;13.348;2023-07-09T04:08:23;6.65;;;3.35;;
7263;SDS011;3673;52.480;13.348;2023-07-09T04:10:52;7.35;;;3.53;;
7263;SDS011;3673;52.480;13.348;2023-07-09T04:13:21;6.28;;;3.70;;
7263;SDS011;3673;52.480;13.348;2023-07-09T04:15:48;5.70;;;3.58;;
7263;SDS011;3673;52.480;13.348;2023-07-09T04:18:15;4.95;;;3.50;;
7263;SDS011;3673;52.480;13.348;2023-07-09T04:20:42;7.47;;;3.97;;
7263;SDS011;3673;52.480;13.348;2023-07-09T04:23:09;6.38;;;4.22;;
7263;SDS011;3673;52.480;13.348;2023-07-09T04:25:37;3.88;;;3.33;;
7263;SDS011;3673;52.480;13.348;2023-07-09T04:28:04;5.03;;;4.00;;
7263;SDS011;3673;52.480;13.348;2023-07-09T04:30:32;4.72;;;4.18;;
7263;SDS011;3673;52.480;13.348;2023-07-09T04:32:59;5.70;;;3.45;;
7263;SDS011;3673;52.480;13.348;2023-07-09T04:35:26;9.00;;;3.88;;
7263;SDS011;3673;52.480;13.348;2023-07-09T04:37:53;10.60;;;4.07;;
7263;SDS011;3673;52.480;13.348;2023-07-09T04:40:20;4.15;;;3.75;;
7263;SDS011;3673;52.480;13.348;2023-07-09T04:42:47;5.10;;;3.50;;
7263;SDS011;3673;52.480;13.348;2023-07-09T04:45:14;7.22;;;3.58;;
7263;SDS011;3673;52.480;13.348;2023-07-09T04:47:42;4.70;;;3.50;;
7263;SDS011;3673;52.480;13.348;2023-07-09T04:50:09;4.45;;;3.47;;
7263;SDS011;3673;52.480;13.348;2023-07-09T04:52:38;8.13;;;3.38;;
7263;SDS011;3673;52.480;13.348;2023-07-09T04:55:05;17.23;;;4.75;;
7263;SDS011;3673;52.480;13.348;2023-07-09T04:57:34;6.25;;;3.63;;
7263;SDS011;3673;52.480;13.348;2023-07-09T05:00:01;8.90;;;3.88;;
7263;SDS011;3673;52.480;13.348;2023-07-09T05:02:30;4.07;;;3.45;;
7263;SDS011;3673;52.480;13.348;2023-07-09T05:05:01;7.13;;;4.00;;
7263;SDS011;3673;52.480;13.348;2023-07-09T05:07:27;4.93;;;3.58;;
7263;SDS011;3673;52.480;13.348;2023-07-09T05:09:54;5.22;;;3.47;;
7263;SDS011;3673;52.480;13.348;2023-07-09T05:12:21;4.57;;;3.17;;
7263;SDS011;3673;52.480;13.348;2023-07-09T05:14:52;5.15;;;3.65;;
7263;SDS011;3673;52.480;13.348;2023-07-09T05:17:21;5.90;;;3.67;;
7263;SDS011;3673;52.480;13.348;2023-07-09T05:19:48;4.25;;;2.97;;
7263;SDS011;3673;52.480;13.348;2023-07-09T05:22:16;5.32;;;3.85;;
7263;SDS011;3673;52.480;13.348;2023-07-09T05:24:43;6.93;;;3.85;;
7263;SDS011;3673;52.480;13.348;2023-07-09T05:27:10;10.65;;;4.85;;
7263;SDS011;3673;52.480;13.348;2023-07-09T05:29:37;4.93;;;2.97;;
7263;SDS011;3673;52.480;13.348;2023-07-09T05:32:04;4.13;;;3.22;;
7263;SDS011;3673;52.480;13.348;2023-07-09T05:34:32;4.30;;;3.33;;
7263;SDS011;3673;52.480;13.348;2023-07-09T05:36:58;5.18;;;3.60;;
7263;SDS011;3673;52.480;13.348;2023-07-09T05:39:27;3.70;;;3.25;;
7263;SDS011;3673;52.480;13.348;2023-07-09T05:41:54;9.38;;;3.88;;
7263;SDS011;3673;52.480;13.348;2023-07-09T05:44:20;7.32;;;3.90;;
7263;SDS011;3673;52.480;13.348;2023-07-09T05:46:47;6.63;;;3.40;;
7263;SDS011;3673;52.480;13.348;2023-07-09T05:49:14;3.63;;;3.30;;
7263;SDS011;3673;52.480;13.348;2023-07-09T05:51:41;7.47;;;3.08;;
7263;SDS011;3673;52.480;13.348;2023-07-09T05:54:08;4.47;;;3.47;;
7263;SDS011;3673;52.480;13.348;2023-07-09T05:56:37;5.60;;;3.45;;
7263;SDS011;3673;52.480;13.348;2023-07-09T05:59:04;3.60;;;3.30;;
7263;SDS011;3673;52.480;13.348;2023-07-09T06:01:31;6.55;;;3.58;;
7263;SDS011;3673;52.480;13.348;2023-07-09T06:03:58;6.80;;;3.65;;
7263;SDS011;3673;52.480;13.348;2023-07-09T06:06:25;6.32;;;4.63;;
7263;SDS011;3673;52.480;13.348;2023-07-09T06:08:53;3.72;;;3.33;;
7263;SDS011;3673;52.480;13.348;2023-07-09T06:11:20;4.95;;;3.53;;
7263;SDS011;3673;52.480;13.348;2023-07-09T06:13:49;6.68;;;3.70;;
7263;SDS011;3673;52.480;13.348;2023-07-09T06:16:17;3.78;;;3.22;;
7263;SDS011;3673;52.480;13.348;2023-07-09T06:18:44;6.18;;;3.60;;
7263;SDS011;3673;52.480;13.348;2023-07-09T06:21:10;4.55;;;3.35;;
7263;SDS011;3673;52.480;13.348;2023-07-09T06:23:38;5.13;;;3.67;;
7263;SDS011;3673;52.480;13.348;2023-07-09T06:26:05;6.75;;;3.75;;
7263;SDS011;3673;52.480;13.348;2023-07-09T06:28:31;6.22;;;3.60;;
7263;SDS011;3673;52.480;13.348;2023-07-09T06:31:00;4.88;;;4.03;;
7263;SDS011;3673;52.480;13.348;2023-07-09T06:33:27;5.10;;;4.03;;
7263;SDS011;3673;52.480;13.348;2023-07-09T06:35:56;9.20;;;4.10;;
7263;SDS011;3673;52.480;13.348;2023-07-09T06:38:25;5.45;;;3.70;;
7263;SDS011;3673;52.480;13.348;2023-07-09T06:40:52;8.48;;;3.95;;
7263;SDS011;3673;52.480;13.348;2023-07-09T06:43:19;6.28;;;3.70;;
7263;SDS011;3673;52.480;13.348;2023-07-09T06:45:50;4.47;;;3.50;;
7263;SDS011;3673;52.480;13.348;2023-07-09T06:48:20;4.38;;;3.72;;
7263;SDS011;3673;52.480;13.348;2023-07-09T06:50:47;5.55;;;3.80;;
7263;SDS011;3673;52.480;13.348;2023-07-09T06:53:14;4.72;;;3.63;;
7263;SDS011;3673;52.480;13.348;2023-07-09T06:55:41;5.00;;;3.50;;
7263;SDS011;3673;52.480;13.348;2023-07-09T06:58:08;5.97;;;3.83;;
7263;SDS011;3673;52.480;13.348;2023-07-09T07:00:35;5.13;;;3.92;;
7263;SDS011;3673;52.480;13.348;2023-07-09T07:03:03;5.05;;;3.95;;
7263;SDS011;3673;52.480;13.348;2023-07-09T07:05:32;6.30;;;3.83;;
7263;SDS011;3673;52.480;13.348;2023-07-09T07:07:59;6.75;;;4.10;;
7263;SDS011;3673;52.480;13.348;2023-07-09T07:10:28;5.88;;;3.33;;
7263;SDS011;3673;52.480;13.348;2023-07-09T07:12:55;8.60;;;4.35;;
7263;SDS011;3673;52.480;13.348;2023-07-09T07:15:22;4.63;;;3.78;;
7263;SDS011;3673;52.480;13.348;2023-07-09T07:17:49;6.97;;;3.70;;
7263;SDS011;3673;52.480;13.348;2023-07-09T07:20:16;6.82;;;4.10;;
7263;SDS011;3673;52.480;13.348;2023-07-09T07:22:45;4.38;;;3.65;;
7263;SDS011;3673;52.480;13.348;2023-07-09T07:25:12;5.72;;;4.07;;
7263;SDS011;3673;52.480;13.348;2023-07-09T07:27:40;4.65;;;3.85;;
7263;SDS011;3673;52.480;13.348;2023-07-09T07:30:07;4.95;;;3.90;;
7263;SDS011;3673;52.480;13.348;2023-07-09T07:32:35;6.70;;;3.90;;
7263;SDS011;3673;52.480;13.348;2023-07-09T07:35:05;6.97;;;4.25;;
7263;SDS011;3673;52.480;13.348;2023-07-09T07:37:33;6.07;;;4.53;;
7263;SDS011;3673;52.480;13.348;2023-07-09T07:40:01;5.18;;;4.40;;
7263;SDS011;3673;52.480;13.348;2023-07-09T07:42:29;6.18;;;3.92;;
7263;SDS011;3673;52.480;13.348;2023-07-09T07:44:56;6.60;;;4.72;;
7263;SDS011;3673;52.480;13.348;2023-07-09T07:47:26;5.50;;;3.85;;
7263;SDS011;3673;52.480;13.348;2023-07-09T07:49:53;4.57;;;3.95;;
7263;SDS011;3673;52.480;13.348;2023-07-09T07:52:21;5.93;;;3.97;;
7263;SDS011;3673;52.480;13.348;2023-07-09T07:54:48;6.03;;;4.13;;
7263;SDS011;3673;52.480;13.348;2023-07-09T07:57:16;4.60;;;3.92;;
7263;SDS011;3673;52.480;13.348;2023-07-09T07:59:43;6.85;;;4.50;;
7263;SDS011;3673;52.480;13.348;2023-07-09T08:02:11;5.80;;;4.30;;
7263;SDS011;3673;52.480;13.348;2023-07-09T08:04:40;4.95;;;4.38;;
7263;SDS011;3673;52.480;13.348;2023-07-09T08:07:07;6.82;;;3.90;;
7263;SDS011;3673;52.480;13.348;2023-07-09T08:09:35;6.78;;;4.15;;
7263;SDS011;3673;52.480;13.348;2023-07-09T08:12:04;4.75;;;4.20;;
7263;SDS011;3673;52.480;13.348;2023-07-09T08:14:37;4.57;;;3.83;;
7263;SDS011;3673;52.480;13.348;2023-07-09T08:17:06;4.78;;;3.70;;
7263;SDS011;3673;52.480;13.348;2023-07-09T08:19:43;9.30;;;4.57;;
7263;SDS011;3673;52.480;13.348;2023-07-09T08:22:11;5.68;;;4.30;;
7263;SDS011;3673;52.480;13.348;2023-07-09T08:24:38;4.90;;;4.47;;
7263;SDS011;3673;52.480;13.348;2023-07-09T08:27:05;5.47;;;4.28;;
7263;SDS011;3673;52.480;13.348;2023-07-09T08:29:33;4.93;;;3.97;;
7263;SDS011;3673;52.480;13.348;2023-07-09T08:32:02;6.43;;;3.85;;
7263;SDS011;3673;52.480;13.348;2023-07-09T08:34:29;8.38;;;4.85;;
7263;SDS011;3673;52.480;13.348;2023-07-09T08:36:56;5.40;;;4.05;;
7263;SDS011;3673;52.480;13.348;2023-07-09T08:39:23;4.93;;;4.22;;
7263;SDS011;3673;52.480;13.348;2023-07-09T08:41:52;4.43;;;3.90;;
7263;SDS011;3673;52.480;13.348;2023-07-09T08:47:39;4.97;;;4.03;;
7263;SDS011;3673;52.480;13.348;2023-07-09T08:50:18;5.88;;;3.92;;
7263;SDS011;3673;52.480;13.348;2023-07-09T08:52:50;5.25;;;3.75;;
7263;SDS011;3673;52.480;13.348;2023-07-09T08:55:19;5.03;;;3.83;;
7263;SDS011;3673;52.480;13.348;2023-07-09T08:57:52;5.90;;;3.78;;
7263;SDS011;3673;52.480;13.348;2023-07-09T09:00:27;4.75;;;4.05;;
7263;SDS011;3673;52.480;13.348;2023-07-09T09:03:00;4.35;;;3.95;;
7263;SDS011;3673;52.480;13.348;2023-07-09T09:05:35;5.75;;;3.88;;
7263;SDS011;3673;52.480;13.348;2023-07-09T09:08:10;4.05;;;3.65;;
7263;SDS011;3673;52.480;13.348;2023-07-09T09:10:47;5.47;;;3.90;;
7263;SDS011;3673;52.480;13.348;2023-07-09T09:13:22;4.30;;;3.63;;
7263;SDS011;3673;52.480;13.348;2023-07-09T09:15:52;4.18;;;3.78;;
7263;SDS011;3673;52.480;13.348;2023-07-09T09:18:34;4.00;;;3.60;;
7263;SDS011;3673;52.480;13.348;2023-07-09T09:21:10;4.70;;;3.47;;
7263;SDS011;3673;52.480;13.348;2023-07-09T09:23:45;5.28;;;4.00;;
7263;SDS011;3673;52.480;13.348;2023-07-09T09:26:18;5.97;;;3.60;;
7263;SDS011;3673;52.480;13.348;2023-07-09T09:28:50;4.65;;;4.15;;
7263;SDS011;3673;52.480;13.348;2023-07-09T09:31:18;6.63;;;4.38;;
7263;SDS011;3673;52.480;13.348;2023-07-09T09:33:47;11.23;;;4.55;;
7263;SDS011;3673;52.480;13.348;2023-07-09T09:36:16;7.28;;;5.40;;
7263;SDS011;3673;52.480;13.348;2023-07-09T09:38:46;4.57;;;4.15;;
7263;SDS011;3673;52.480;13.348;2023-07-09T09:41:16;6.25;;;3.92;;
7263;SDS011;3673;52.480;13.348;2023-07-09T09:43:46;5.75;;;3.63;;
7263;SDS011;3673;52.480;13.348;2023-07-09T09:46:16;4.00;;;3.55;;
7263;SDS011;3673;52.480;13.348;2023-07-09T09:48:48;4.28;;;3.63;;
7263;SDS011;3673;52.480;13.348;2023-07-09T09:51:17;8.13;;;3.78;;
7263;SDS011;3673;52.480;13.348;2023-07-09T09:53:46;4.90;;;3.63;;
7263;SDS011;3673;52.480;13.348;2023-07-09T09:56:18;5.10;;;3.47;;
7263;SDS011;3673;52.480;13.348;2023-07-09T09:58:52;5.60;;;3.38;;
7263;SDS011;3673;52.480;13.348;2023-07-09T10:01:21;6.47;;;3.58;;
7263;SDS011;3673;52.480;13.348;2023-07-09T10:03:56;5.00;;;3.70;;
7263;SDS011;3673;52.480;13.348;2023-07-09T10:06:35;6.47;;;4.60;;
7263;SDS011;3673;52.480;13.348;2023-07-09T10:09:07;8.25;;;4.75;;
7263;SDS011;3673;52.480;13.348;2023-07-09T10:11:46;4.80;;;4.05;;
7263;SDS011;3673;52.480;13.348;2023-07-09T10:14:21;8.18;;;4.38;;
7263;SDS011;3673;52.480;13.348;2023-07-09T10:17:04;7.43;;;4.93;;
7263;SDS011;3673;52.480;13.348;2023-07-09T10:19:52;10.82;;;5.25;;
7263;SDS011;3673;52.480;13.348;2023-07-09T10:22:28;6.32;;;4.63;;
7263;SDS011;3673;52.480;13.348;2023-07-09T10:25:19;5.38;;;4.65;;
7263;SDS011;3673;52.480;13.348;2023-07-09T10:28:11;4.53;;;3.92;;
7263;SDS011;3673;52.480;13.348;2023-07-09T10:31:00;6.22;;;4.13;;
7263;SDS011;3673;52.480;13.348;2023-07-09T10:33:39;7.97;;;4.97;;
7263;SDS011;3673;52.480;13.348;2023-07-09T10:36:23;5.57;;;4.43;;
7263;SDS011;3673;52.480;13.348;2023-07-09T10:39:03;3.97;;;3.63;;
7263;SDS011;3673;52.480;13.348;2023-07-09T10:41:35;6.07;;;4.22;;
7263;SDS011;3673;52.480;13.348;2023-07-09T10:44:05;6.57;;;4.35;;
7263;SDS011;3673;52.480;13.348;2023-07-09T10:46:40;5.65;;;4.05;;
7263;SDS011;3673;52.480;13.348;2023-07-09T10:49:13;5.28;;;3.58;;
7263;SDS011;3673;52.480;13.348;2023-07-09T10:51:43;4.75;;;3.53;;
7263;SDS011;3673;52.480;13.348;2023-07-09T10:54:18;5.32;;;3.80;;
7263;SDS011;3673;52.480;13.348;2023-07-09T10:56:55;7.50;;;4.25;;
7263;SDS011;3673;52.480;13.348;2023-07-09T10:59:29;4.57;;;4.18;;
7263;SDS011;3673;52.480;13.348;2023-07-09T11:02:01;6.22;;;4.32;;
7263;SDS011;3673;52.480;13.348;2023-07-09T11:04:44;4.30;;;3.90;;
7263;SDS011;3673;52.480;13.348;2023-07-09T11:07:18;4.50;;;4.10;;
7263;SDS011;3673;52.480;13.348;2023-07-09T11:09:53;5.25;;;3.60;;
7263;SDS011;3673;52.480;13.348;2023-07-09T11:12:24;7.65;;;4.10;;
7263;SDS011;3673;52.480;13.348;2023-07-09T11:14:59;5.78;;;4.30;;
7263;SDS011;3673;52.480;13.348;2023-07-09T11:17:31;4.20;;;3.80;;
7263;SDS011;3673;52.480;13.348;2023-07-09T11:20:16;5.40;;;3.85;;
7263;SDS011;3673;52.480;13.348;2023-07-09T11:22:52;5.60;;;3.80;;
7263;SDS011;3673;52.480;13.348;2023-07-09T11:25:27;5.43;;;4.13;;
7263;SDS011;3673;52.480;13.348;2023-07-09T11:28:04;4.43;;;4.03;;
7263;SDS011;3673;52.480;13.348;2023-07-09T11:30:32;4.10;;;3.70;;
7263;SDS011;3673;52.480;13.348;2023-07-09T11:33:00;6.15;;;5.55;;
7263;SDS011;3673;52.480;13.348;2023-07-09T11:35:47;6.05;;;4.28;;
7263;SDS011;3673;52.480;13.348;2023-07-09T11:38:18;5.10;;;4.03;;
7263;SDS011;3673;52.480;13.348;2023-07-09T11:40:48;7.75;;;6.00;;
7263;SDS011;3673;52.480;13.348;2023-07-09T11:43:31;4.35;;;3.60;;
7263;SDS011;3673;52.480;13.348;2023-07-09T11:46:04;10.30;;;4.68;;
7263;SDS011;3673;52.480;13.348;2023-07-09T11:48:37;6.25;;;4.32;;
7263;SDS011;3673;52.480;13.348;2023-07-09T11:51:08;6.50;;;5.00;;
7263;SDS011;3673;52.480;13.348;2023-07-09T11:53:45;4.63;;;4.15;;
7263;SDS011;3673;52.480;13.348;2023-07-09T11:56:17;5.32;;;4.55;;
7263;SDS011;3673;52.480;13.348;2023-07-09T11:58:48;5.53;;;4.93;;
7263;SDS011;3673;52.480;13.348;2023-07-09T12:01:16;4.82;;;4.10;;
7263;SDS011;3673;52.480;13.348;2023-07-09T12:03:46;5.85;;;4.70;;
7263;SDS011;3673;52.480;13.348;2023-07-09T12:06:16;5.97;;;4.10;;
7263;SDS011;3673;52.480;13.348;2023-07-09T12:08:49;9.90;;;5.13;;
7263;SDS011;3673;52.480;13.348;2023-07-09T12:11:18;5.97;;;4.50;;
7263;SDS011;3673;52.480;13.348;2023-07-09T12:13:48;4.55;;;4.15;;
7263;SDS011;3673;52.480;13.348;2023-07-09T12:16:20;5.45;;;4.15;;
7263;SDS011;3673;52.480;13.348;2023-07-09T12:18:49;4.30;;;3.90;;
7263;SDS011;3673;52.480;13.348;2023-07-09T12:21:16;4.90;;;4.25;;
7263;SDS011;3673;52.480;13.348;2023-07-09T12:23:44;8.50;;;4.72;;
7263;SDS011;3673;52.480;13.348;2023-07-09T12:26:13;4.28;;;3.92;;
7263;SDS011;3673;52.480;13.348;2023-07-09T12:28:48;7.80;;;7.03;;
7263;SDS011;3673;52.480;13.348;2023-07-09T12:31:17;8.23;;;6.88;;
7263;SDS011;3673;52.480;13.348;2023-07-09T12:33:48;7.90;;;6.65;;
7263;SDS011;3673;52.480;13.348;2023-07-09T12:36:18;25.83;;;14.18;;
7263;SDS011;3673;52.480;13.348;2023-07-09T12:38:49;10.25;;;7.25;;
7263;SDS011;3673;52.480;13.348;2023-07-09T12:41:22;7.38;;;6.68;;
7263;SDS011;3673;52.480;13.348;2023-07-09T12:43:51;9.00;;;6.65;;
7263;SDS011;3673;52.480;13.348;2023-07-09T12:46:19;7.32;;;6.30;;
7263;SDS011;3673;52.480;13.348;2023-07-09T12:48:47;7.53;;;6.57;;
7263;SDS011;3673;52.480;13.348;2023-07-09T12:51:16;8.57;;;6.65;;
7263;SDS011;3673;52.480;13.348;2023-07-09T12:53:49;5.22;;;4.78;;
7263;SDS011;3673;52.480;13.348;2023-07-09T12:56:28;5.53;;;4.95;;
7263;SDS011;3673;52.480;13.348;2023-07-09T12:58:56;6.85;;;5.22;;
7263;SDS011;3673;52.480;13.348;2023-07-09T13:01:23;8.25;;;6.07;;
7263;SDS011;3673;52.480;13.348;2023-07-09T13:03:53;6.25;;;5.00;;
7263;SDS011;3673;52.480;13.348;2023-07-09T13:06:26;5.15;;;4.65;;
7263;SDS011;3673;52.480;13.348;2023-07-09T13:08:55;5.32;;;4.80;;
7263;SDS011;3673;52.480;13.348;2023-07-09T13:11:24;6.30;;;5.68;;
7263;SDS011;3673;52.480;13.348;2023-07-09T13:13:56;5.97;;;4.93;;
7263;SDS011;3673;52.480;13.348;2023-07-09T13:16:25;5.80;;;4.55;;
7263;SDS011;3673;52.480;13.348;2023-07-09T13:18:52;6.13;;;4.85;;
7263;SDS011;3673;52.480;13.348;2023-07-09T13:21:19;4.90;;;4.50;;
7263;SDS011;3673;52.480;13.348;2023-07-09T13:23:46;5.22;;;4.63;;
7263;SDS011;3673;52.480;13.348;2023-07-09T13:26:13;6.28;;;5.45;;
7263;SDS011;3673;52.480;13.348;2023-07-09T13:28:41;5.50;;;5.00;;
7263;SDS011;3673;52.480;13.348;2023-07-09T13:31:13;5.35;;;4.80;;
7263;SDS011;3673;52.480;13.348;2023-07-09T13:33:43;6.07;;;4.88;;
7263;SDS011;3673;52.480;13.348;2023-07-09T13:36:12;5.47;;;4.95;;
7263;SDS011;3673;52.480;13.348;2023-07-09T13:38:39;5.00;;;4.32;;
7263;SDS011;3673;52.480;13.348;2023-07-09T13:41:09;4.75;;;4.35;;
7263;SDS011;3673;52.480;13.348;2023-07-09T13:43:40;5.72;;;4.53;;
7263;SDS011;3673;52.480;13.348;2023-07-09T13:46:10;4.70;;;4.30;;
7263;SDS011;3673;52.480;13.348;2023-07-09T13:48:39;6.32;;;4.88;;
7263;SDS011;3673;52.480;13.348;2023-07-09T13:51:16;5.85;;;5.35;;
7263;SDS011;3673;52.480;13.348;2023-07-09T13:53:45;7.90;;;5.63;;
7263;SDS011;3673;52.480;13.348;2023-07-09T13:56:14;5.55;;;4.57;;
7263;SDS011;3673;52.480;13.348;2023-07-09T13:58:41;6.35;;;5.75;;
7263;SDS011;3673;52.480;13.348;2023-07-09T14:01:09;8.73;;;5.50;;
7263;SDS011;3673;52.480;13.348;2023-07-09T14:03:41;5.30;;;4.80;;
7263;SDS011;3673;52.480;13.348;2023-07-09T14:06:08;5.72;;;5.13;;
7263;SDS011;3673;52.480;13.348;2023-07-09T14:08:37;5.60;;;4.95;;
7263;SDS011;3673;52.480;13.348;2023-07-09T14:11:07;7.38;;;4.95;;
7263;SDS011;3673;52.480;13.348;2023-07-09T14:13:37;6.85;;;4.82;;
7263;SDS011;3673;52.480;13.348;2023-07-09T14:16:04;8.68;;;5.82;;
7263;SDS011;3673;52.480;13.348;2023-07-09T14:18:33;8.57;;;5.32;;
7263;SDS011;3673;52.480;13.348;2023-07-09T14:20:59;7.80;;;5.95;;
7263;SDS011;3673;52.480;13.348;2023-07-09T14:23:29;8.75;;;7.32;;
7263;SDS011;3673;52.480;13.348;2023-07-09T14:25:56;7.20;;;5.35;;
7263;SDS011;3673;52.480;13.348;2023-07-09T14:28:23;5.95;;;5.45;;
7263;SDS011;3673;52.480;13.348;2023-07-09T14:30:49;6.68;;;5.13;;
7263;SDS011;3673;52.480;13.348;2023-07-09T14:33:17;6.18;;;5.57;;
7263;SDS011;3673;52.480;13.348;2023-07-09T14:35:48;6.35;;;5.40;;
7263;SDS011;3673;52.480;13.348;2023-07-09T14:38:16;6.32;;;5.13;;
7263;SDS011;3673;52.480;13.348;2023-07-09T14:40:50;7.63;;;4.05;;
7263;SDS011;3673;52.480;13.348;2023-07-09T14:43:19;6.30;;;5.25;;
7263;SDS011;3673;52.480;13.348;2023-07-09T14:45:47;5.68;;;5.18;;
7263;SDS011;3673;52.480;13.348;2023-07-09T14:48:15;6.80;;;5.57;;
7263;SDS011;3673;52.480;13.348;2023-07-09T14:50:45;6.90;;;5.20;;
7263;SDS011;3673;52.480;13.348;2023-07-09T14:53:14;7.18;;;6.30;;
7263;SDS011;3673;52.480;13.348;2023-07-09T14:55:46;5.60;;;4.85;;
7263;SDS011;3673;52.480;13.348;2023-07-09T14:58:14;8.73;;;5.47;;
7263;SDS011;3673;52.480;13.348;2023-07-09T15:00:43;7.57;;;6.05;;
7263;SDS011;3673;52.480;13.348;2023-07-09T15:03:12;5.50;;;5.00;;
7263;SDS011;3673;52.480;13.348;2023-07-09T15:05:45;5.70;;;5.20;;
7263;SDS011;3673;52.480;13.348;2023-07-09T15:08:14;5.43;;;4.93;;
7263;SDS011;3673;52.480;13.348;2023-07-09T15:10:43;6.30;;;5.50;;
7263;SDS011;3673;52.480;13.348;2023-07-09T15:13:14;7.78;;;5.72;;
7263;SDS011;3673;52.480;13.348;2023-07-09T15:15:43;7.38;;;5.40;;
7263;SDS011;3673;52.480;13.348;2023-07-09T15:18:11;6.18;;;5.28;;
7263;SDS011;3673;52.480;13.348;2023-07-09T15:20:42;6.03;;;5.43;;